createdAt,value
2019-05-30T00:00:06.784Z,98918.55
2019-05-30T00:02:24.861Z,98922.75
2019-05-30T00:04:54.112Z,98927.88
2019-05-30T00:07:22.506Z,98924.06
2019-05-30T00:09:51.182Z,98921.59
2019-05-30T00:12:19.500Z,98929.47
2019-05-30T00:14:47.947Z,98928.95
2019-05-30T00:17:16.536Z,98929.70
2019-05-30T00:19:44.865Z,98924.92
2019-05-30T00:22:13.380Z,98927.97
2019-05-30T00:24:42.093Z,98930.99
2019-05-30T00:27:10.787Z,98930.77
2019-05-30T00:29:39.086Z,98923.72
2019-05-30T00:32:07.840Z,98930.52
2019-05-30T00:34:36.537Z,98932.59
2019-05-30T00:37:06.053Z,98929.94
2019-05-30T00:39:34.730Z,98934.00
2019-05-30T00:42:04.276Z,98921.41
2019-05-30T00:44:32.708Z,98923.36
2019-05-30T00:47:02.320Z,98932.45
2019-05-30T00:49:31.334Z,98916.77
2019-05-30T00:52:00.555Z,98921.28
2019-05-30T00:54:29.043Z,98924.81
2019-05-30T00:56:58.496Z,98928.67
2019-05-30T00:59:27.038Z,98929.57
2019-05-30T01:01:56.536Z,98922.62
2019-05-30T01:04:25.431Z,98929.76
2019-05-30T01:06:54.107Z,98927.64
2019-05-30T01:09:22.431Z,98927.64
2019-05-30T01:11:50.733Z,98935.60
2019-05-30T01:14:19.269Z,98934.98
2019-05-30T01:16:47.746Z,98926.16
2019-05-30T01:19:16.254Z,98940.48
2019-05-30T01:21:44.626Z,98937.78
2019-05-30T01:24:12.928Z,98939.27
2019-05-30T01:26:41.256Z,98942.23
2019-05-30T01:29:09.632Z,98936.19
2019-05-30T01:31:37.958Z,98933.90
2019-05-30T01:34:06.335Z,98933.80
2019-05-30T01:36:34.726Z,98933.80
2019-05-30T01:39:03.798Z,98932.77
2019-05-30T01:41:32.675Z,98938.83
2019-05-30T01:44:01.926Z,98932.94
2019-05-30T01:46:30.275Z,98928.02
2019-05-30T01:48:58.580Z,98936.50
2019-05-30T01:51:26.916Z,98929.53
2019-05-30T01:53:55.224Z,98923.97
2019-05-30T01:56:23.881Z,98929.03
2019-05-30T01:58:52.292Z,98929.34
2019-05-30T02:01:25.188Z,98935.15
2019-05-30T02:03:50.773Z,98918.58
2019-05-30T02:06:19.140Z,98933.03
2019-05-30T02:08:47.813Z,98934.67
2019-05-30T02:11:16.184Z,98930.98
2019-05-30T02:13:44.509Z,98933.73
2019-05-30T02:16:12.806Z,98939.75
2019-05-30T02:18:41.716Z,98934.42
2019-05-30T02:21:10.124Z,98941.91
2019-05-30T02:23:38.751Z,98940.31
2019-05-30T02:26:08.254Z,98940.25
2019-05-30T02:28:36.793Z,98942.30
2019-05-30T02:31:06.735Z,98942.46
2019-05-30T02:33:35.263Z,98944.59
2019-05-30T02:36:05.848Z,98950.59
2019-05-30T02:38:33.879Z,98953.88
2019-05-30T02:41:03.330Z,98954.47
2019-05-30T02:43:32.331Z,98955.59
2019-05-30T02:46:01.097Z,98958.16
2019-05-30T02:48:29.586Z,98955.92
2019-05-30T02:50:58.216Z,98964.55
2019-05-30T02:53:26.541Z,98961.05
2019-05-30T02:55:55.186Z,98963.67
2019-05-30T02:58:23.505Z,98974.82
2019-05-30T03:00:51.807Z,98970.66
2019-05-30T03:03:20.224Z,98969.12
2019-05-30T03:05:48.916Z,98973.61
2019-05-30T03:08:17.293Z,98974.56
2019-05-30T03:10:46.012Z,98972.69
2019-05-30T03:13:14.682Z,98975.87
2019-05-30T03:15:43.366Z,98972.23
2019-05-30T03:18:12.881Z,98968.06
2019-05-30T03:20:43.214Z,98966.80
2019-05-30T03:23:14.071Z,98966.63
2019-05-30T03:25:41.687Z,98964.57
2019-05-30T03:28:13.033Z,98966.03
2019-05-30T03:30:40.239Z,98965.08
2019-05-30T03:33:29.233Z,98967.14
2019-05-30T03:35:42.570Z,98967.76
2019-05-30T03:38:12.453Z,98973.55
2019-05-30T03:40:39.329Z,98971.81
2019-05-30T03:43:09.201Z,98965.27
2019-05-30T03:45:38.716Z,98967.50
2019-05-30T03:48:12.266Z,98971.28
2019-05-30T03:50:43.574Z,98976.50
2019-05-30T03:53:14.333Z,98980.92
2019-05-30T03:55:43.724Z,98979.80
2019-05-30T03:58:20.984Z,98980.34
2019-05-30T04:00:58.475Z,98980.32
2019-05-30T04:03:51.694Z,98978.41
2019-05-30T04:06:23.174Z,98982.06
2019-05-30T04:08:54.958Z,98980.49
2019-05-30T04:11:26.717Z,98989.55
2019-05-30T04:13:57.146Z,98997.41
2019-05-30T04:16:25.518Z,98993.36
2019-05-30T04:18:53.981Z,98996.95
2019-05-30T04:21:22.487Z,98992.36
2019-05-30T04:23:50.826Z,98994.58
2019-05-30T04:26:19.200Z,99001.34
2019-05-30T04:28:47.947Z,98988.66
2019-05-30T04:31:17.672Z,98988.66
2019-05-30T04:33:46.590Z,98999.92
2019-05-30T04:36:16.838Z,99007.42
2019-05-30T04:38:45.074Z,99004.81
2019-05-30T04:41:15.901Z,99018.70
2019-05-30T04:43:44.803Z,99020.16
2019-05-30T04:46:16.005Z,99012.20
2019-05-30T04:48:43.516Z,99016.09
2019-05-30T04:51:12.542Z,99014.27
2019-05-30T04:53:42.420Z,99013.42
2019-05-30T04:56:12.492Z,99022.41
2019-05-30T04:58:42.489Z,99027.42
2019-05-30T05:01:13.087Z,99031.77
2019-05-30T05:03:46.401Z,99029.08
2019-05-30T05:06:13.604Z,99029.70
2019-05-30T05:08:42.232Z,99042.19
2019-05-30T05:11:14.094Z,99029.00
2019-05-30T05:13:40.748Z,99036.06
2019-05-30T05:16:23.056Z,99038.92
2019-05-30T05:18:39.152Z,99048.54
2019-05-30T05:21:07.529Z,99045.36
2019-05-30T05:23:36.207Z,99044.08
2019-05-30T05:26:04.581Z,99052.27
2019-05-30T05:28:32.915Z,99052.23
2019-05-30T05:31:01.211Z,99062.75
2019-05-30T05:33:29.617Z,99059.28
2019-05-30T05:35:58.218Z,99062.06
2019-05-30T05:38:26.905Z,99061.67
2019-05-30T05:40:55.272Z,99065.14
2019-05-30T05:43:24.591Z,99065.45
2019-05-30T05:45:52.989Z,99073.56
2019-05-30T05:48:22.698Z,99066.41
2019-05-30T05:50:51.049Z,99073.83
2019-05-30T05:53:19.354Z,99072.88
2019-05-30T05:55:47.666Z,99073.74
2019-05-30T05:58:16.824Z,99072.72
2019-05-30T06:00:45.367Z,99085.27
2019-05-30T06:03:14.002Z,99079.28
2019-05-30T06:05:52.540Z,99084.34
2019-05-30T06:08:13.941Z,99090.60
2019-05-30T06:10:42.689Z,99090.66
2019-05-30T06:13:11.150Z,99095.17
2019-05-30T06:15:39.456Z,99096.95
2019-05-30T06:18:09.662Z,99096.36
2019-05-30T06:20:37.968Z,99098.00
2019-05-30T06:23:06.688Z,99097.84
2019-05-30T06:25:35.077Z,99101.13
2019-05-30T06:28:03.469Z,99105.83
2019-05-30T06:30:31.754Z,99110.09
2019-05-30T06:33:00.418Z,99110.84
2019-05-30T06:35:29.530Z,99112.94
2019-05-30T06:37:58.510Z,99108.23
2019-05-30T06:40:30.339Z,99115.78
2019-05-30T06:42:57.073Z,99121.70
2019-05-30T06:45:26.839Z,99119.09
2019-05-30T06:47:56.234Z,99124.73
2019-05-30T06:50:24.773Z,99115.71
2019-05-30T06:52:53.013Z,99125.66
2019-05-30T06:55:23.012Z,99121.60
2019-05-30T06:57:51.592Z,99122.56
2019-05-30T07:00:19.975Z,99119.90
2019-05-30T07:02:48.818Z,99126.56
2019-05-30T07:05:17.725Z,99127.02
2019-05-30T07:07:46.951Z,99120.52
2019-05-30T07:10:15.804Z,99135.06
2019-05-30T07:12:44.168Z,99130.92
2019-05-30T07:15:13.877Z,99127.88
2019-05-30T07:17:45.730Z,99131.94
2019-05-30T07:20:14.499Z,99140.13
2019-05-30T07:22:42.901Z,99135.54
2019-05-30T07:25:11.381Z,99136.59
2019-05-30T07:27:39.781Z,99130.56
2019-05-30T07:30:09.903Z,99132.22
2019-05-30T07:32:38.183Z,99140.23
2019-05-30T07:35:08.356Z,99132.90
2019-05-30T07:37:36.719Z,99132.50
2019-05-30T07:40:09.776Z,99130.92
2019-05-30T07:42:38.564Z,99131.52
2019-05-30T07:45:10.433Z,99138.34
2019-05-30T07:47:39.374Z,99143.61
2019-05-30T07:50:07.788Z,99140.44
2019-05-30T07:52:36.931Z,99144.05
2019-05-30T07:55:10.399Z,99137.58
2019-05-30T07:57:41.372Z,99146.83
2019-05-30T08:00:14.615Z,99140.83
2019-05-30T08:02:43.415Z,99134.34
2019-05-30T08:05:23.663Z,99143.37
2019-05-30T08:07:43.476Z,99130.47
2019-05-30T08:10:13.700Z,99133.79
2019-05-30T08:12:42.304Z,99138.41
2019-05-30T08:15:12.535Z,99134.44
2019-05-30T08:17:44.113Z,99131.66
2019-05-30T08:20:11.343Z,99140.13
2019-05-30T08:22:40.209Z,99134.41
2019-05-30T08:25:10.055Z,99136.02
2019-05-30T08:27:38.774Z,99133.47
2019-05-30T08:30:09.551Z,99126.97
2019-05-30T08:32:38.953Z,99130.29
2019-05-30T08:35:07.929Z,99126.94
2019-05-30T08:37:37.290Z,99134.63
2019-05-30T08:40:11.004Z,99127.48
2019-05-30T08:42:40.349Z,99125.46
2019-05-30T08:45:10.280Z,99125.36
2019-05-30T08:47:40.690Z,99125.30
2019-05-30T08:50:10.713Z,99115.92
2019-05-30T08:52:39.068Z,99125.64
2019-05-30T08:55:08.498Z,99125.64
2019-05-30T08:57:36.852Z,99128.93
2019-05-30T09:00:09.602Z,99123.17
2019-05-30T09:02:38.848Z,99123.38
2019-05-30T09:05:07.993Z,99135.27
2019-05-30T09:07:36.609Z,99123.97
2019-05-30T09:10:07.332Z,99120.42
2019-05-30T09:12:37.593Z,99139.44
2019-05-30T09:15:10.895Z,99132.33
2019-05-30T09:17:40.496Z,99136.48
2019-05-30T09:20:10.352Z,99134.83
2019-05-30T09:22:39.796Z,99137.25
2019-05-30T09:25:16.040Z,99141.91
2019-05-30T09:27:44.727Z,99149.47
2019-05-30T09:30:15.309Z,99139.44
2019-05-30T09:32:45.146Z,99153.78
2019-05-30T09:35:14.194Z,99147.73
2019-05-30T09:37:44.054Z,99135.50
2019-05-30T09:40:13.453Z,99135.14
2019-05-30T09:42:44.137Z,99135.57
2019-05-30T09:45:12.903Z,99143.61
2019-05-30T09:47:43.697Z,99139.73
2019-05-30T09:50:11.772Z,99137.22
2019-05-30T09:52:41.735Z,99129.29
2019-05-30T09:55:10.667Z,99144.94
2019-05-30T09:57:39.077Z,99142.69
2019-05-30T10:00:10.916Z,99153.00
2019-05-30T10:02:39.237Z,99140.55
2019-05-30T10:05:07.877Z,99141.89
2019-05-30T10:07:36.710Z,99138.98
2019-05-30T10:10:06.915Z,99143.22
2019-05-30T10:12:35.575Z,99141.76
2019-05-30T10:15:06.141Z,99132.73
2019-05-30T10:17:34.514Z,99132.30
2019-05-30T10:20:03.164Z,99125.88
2019-05-30T10:22:31.964Z,99135.32
2019-05-30T10:25:00.291Z,99127.86
2019-05-30T10:27:28.660Z,99130.98
2019-05-30T10:29:57.556Z,99126.33
2019-05-30T10:32:25.827Z,99127.11
2019-05-30T10:34:54.253Z,99122.73
2019-05-30T10:37:23.177Z,99114.89
2019-05-30T10:39:51.476Z,99104.61
2019-05-30T10:42:19.868Z,99101.97
2019-05-30T10:44:49.977Z,99113.46
2019-05-30T10:47:18.587Z,99102.16
2019-05-30T10:49:48.562Z,99110.30
2019-05-30T10:52:17.331Z,99104.52
2019-05-30T10:54:46.738Z,99107.51
2019-05-30T10:57:16.162Z,99092.30
2019-05-30T10:59:45.939Z,99103.44
2019-05-30T11:02:14.511Z,99103.67
2019-05-30T11:04:43.267Z,99094.92
2019-05-30T11:07:17.460Z,99097.48
2019-05-30T11:09:50.579Z,99095.26
2019-05-30T11:12:19.070Z,99096.83
2019-05-30T11:14:48.621Z,99091.40
2019-05-30T11:17:17.804Z,99085.03
2019-05-30T11:19:46.124Z,99082.38
2019-05-30T11:22:14.520Z,99088.22
2019-05-30T11:24:42.927Z,99088.42
2019-05-30T11:27:11.222Z,99089.78
2019-05-30T11:29:39.949Z,99084.55
2019-05-30T11:32:08.254Z,99061.38
2019-05-30T11:34:36.952Z,99073.87
2019-05-30T11:37:18.606Z,99077.01
2019-05-30T11:39:35.298Z,99076.84
2019-05-30T11:42:03.966Z,99063.37
2019-05-30T11:44:33.152Z,99060.45
2019-05-30T11:47:02.252Z,99065.15
2019-05-30T11:49:30.575Z,99065.05
2019-05-30T11:51:59.969Z,99064.34
2019-05-30T11:54:28.606Z,99062.61
2019-05-30T11:56:58.091Z,99062.77
2019-05-30T11:59:26.520Z,99062.66
2019-05-30T12:01:54.919Z,99053.48
2019-05-30T12:04:23.235Z,99061.34
2019-05-30T12:06:53.029Z,99063.34
2019-05-30T12:09:21.553Z,99059.00
2019-05-30T12:11:50.987Z,99050.39
2019-05-30T12:14:21.480Z,99052.58
2019-05-30T12:16:49.650Z,99047.31
2019-05-30T12:19:17.977Z,99049.59
2019-05-30T12:21:46.654Z,99054.23
2019-05-30T12:24:15.550Z,99047.25
2019-05-30T12:26:43.848Z,99057.71
2019-05-30T12:29:12.218Z,99056.79
2019-05-30T12:31:40.897Z,99034.06
2019-05-30T12:34:09.788Z,99048.87
2019-05-30T12:36:38.180Z,99028.47
2019-05-30T12:39:07.049Z,99045.40
2019-05-30T12:41:35.370Z,99044.96
2019-05-30T12:44:03.758Z,99032.95
2019-05-30T12:46:32.537Z,99046.05
2019-05-30T12:49:01.605Z,99043.44
2019-05-30T12:51:30.607Z,99054.69
2019-05-30T12:54:00.456Z,99056.63
2019-05-30T12:56:29.229Z,99051.19
2019-05-30T12:58:58.609Z,99051.35
2019-05-30T13:01:27.592Z,99048.69
2019-05-30T13:03:56.982Z,99049.15
2019-05-30T13:06:26.022Z,99045.48
2019-05-30T13:08:54.994Z,99048.84
2019-05-30T13:11:23.725Z,99040.95
2019-05-30T13:13:52.121Z,99039.81
2019-05-30T13:16:20.490Z,99040.77
2019-05-30T13:18:48.825Z,99042.86
2019-05-30T13:21:17.329Z,99042.41
2019-05-30T13:23:45.731Z,99038.63
2019-05-30T13:26:14.027Z,99041.24
2019-05-30T13:28:42.434Z,99040.20
2019-05-30T13:31:10.828Z,99040.41
2019-05-30T13:33:39.574Z,99032.61
2019-05-30T13:36:07.921Z,99042.80
2019-05-30T13:38:36.255Z,99033.59
2019-05-30T13:41:05.647Z,99036.19
2019-05-30T13:43:34.509Z,99030.63
2019-05-30T13:46:03.346Z,99029.60
2019-05-30T13:48:32.843Z,99035.72
2019-05-30T13:51:02.757Z,99031.47
2019-05-30T13:53:31.544Z,99029.67
2019-05-30T13:56:01.373Z,99023.25
2019-05-30T13:58:30.259Z,99022.40
2019-05-30T14:00:59.767Z,99018.52
2019-05-30T14:03:28.674Z,99011.09
2019-05-30T14:05:57.009Z,99009.95
2019-05-30T14:08:25.307Z,99013.67
2019-05-30T14:10:53.607Z,98992.44
2019-05-30T14:13:22.732Z,99003.53
2019-05-30T14:15:51.371Z,99002.81
2019-05-30T14:18:19.685Z,99002.64
2019-05-30T14:20:48.087Z,99002.52
2019-05-30T14:23:16.718Z,99003.50
2019-05-30T14:25:45.009Z,99005.56
2019-05-30T14:28:13.327Z,99000.13
2019-05-30T14:30:42.059Z,98999.66
2019-05-30T14:33:10.762Z,99009.76
2019-05-30T14:35:39.157Z,99004.91
2019-05-30T14:38:08.729Z,99005.53
2019-05-30T14:40:37.647Z,99004.62
2019-05-30T14:43:07.189Z,99001.68
2019-05-30T14:45:35.845Z,98998.78
2019-05-30T14:48:04.582Z,99007.45
2019-05-30T14:50:32.906Z,99001.28
2019-05-30T14:53:01.211Z,98999.27
2019-05-30T14:55:29.808Z,98995.63
2019-05-30T14:57:58.492Z,98992.77
2019-05-30T15:00:28.063Z,99001.89
2019-05-30T15:02:56.381Z,98991.36
2019-05-30T15:05:25.143Z,98996.09
2019-05-30T15:07:53.467Z,98994.43
2019-05-30T15:10:22.034Z,98984.62
2019-05-30T15:12:50.379Z,98994.09
2019-05-30T15:15:19.501Z,98993.88
2019-05-30T15:17:47.914Z,98987.95
2019-05-30T15:20:17.816Z,98986.66
2019-05-30T15:22:46.332Z,98986.02
2019-05-30T15:25:16.543Z,98983.18
2019-05-30T15:27:45.681Z,98984.29
2019-05-30T15:30:14.768Z,98974.48
2019-05-30T15:32:43.385Z,98978.66
2019-05-30T15:35:12.847Z,98976.95
2019-05-30T15:37:41.333Z,98975.85
2019-05-30T15:40:11.098Z,98974.52
2019-05-30T15:42:39.454Z,98975.95
2019-05-30T15:45:09.997Z,98970.52
2019-05-30T15:47:38.401Z,98975.50
2019-05-30T15:50:08.370Z,98974.45
2019-05-30T15:52:37.327Z,98974.86
2019-05-30T15:55:07.516Z,98978.26
2019-05-30T15:57:35.924Z,98969.44
2019-05-30T16:00:07.386Z,98974.65
2019-05-30T16:02:36.148Z,98967.95
2019-05-30T16:05:08.517Z,98961.42
2019-05-30T16:07:36.810Z,98964.34
2019-05-30T16:10:06.794Z,98959.84
2019-05-30T16:12:35.098Z,98964.69
2019-05-30T16:15:04.766Z,98969.11
2019-05-30T16:17:33.065Z,98970.77
2019-05-30T16:20:01.391Z,98975.28
2019-05-30T16:22:30.576Z,98967.52
2019-05-30T16:24:58.920Z,98966.77
2019-05-30T16:27:31.035Z,98969.48
2019-05-30T16:29:57.735Z,98972.28
2019-05-30T16:32:26.458Z,98965.73
2019-05-30T16:34:54.756Z,98965.33
2019-05-30T16:37:23.107Z,98961.33
2019-05-30T16:40:05.427Z,98965.83
2019-05-30T16:42:22.341Z,98974.31
2019-05-30T16:44:52.571Z,98978.72
2019-05-30T16:47:20.902Z,99303.56
2019-05-30T16:49:49.213Z,99595.30
2019-05-30T16:52:18.866Z,99496.36
2019-05-30T16:54:47.837Z,99381.50
2019-05-30T16:57:16.502Z,99276.75
2019-05-30T16:59:44.916Z,99174.16
2019-05-30T17:02:14.677Z,99107.31
2019-05-30T17:04:43.183Z,99055.85
2019-05-30T17:07:11.553Z,99031.22
2019-05-30T17:09:39.891Z,98998.41
2019-05-30T17:12:08.195Z,98993.50
2019-05-30T17:14:36.480Z,98973.45
2019-05-30T17:17:05.213Z,98986.31
2019-05-30T17:19:33.507Z,98987.76
2019-05-30T17:22:02.411Z,98979.36
2019-05-30T17:24:30.779Z,98981.88
2019-05-30T17:26:59.138Z,98987.23
2019-05-30T17:29:27.712Z,98978.25
2019-05-30T17:31:56.374Z,98979.66
2019-05-30T17:34:26.055Z,98979.66
2019-05-30T17:36:54.737Z,98986.37
2019-05-30T17:39:23.038Z,98974.25
2019-05-30T17:41:51.646Z,98986.81
2019-05-30T17:44:21.036Z,98981.94
2019-05-30T17:46:49.399Z,98984.93
2019-05-30T17:49:17.814Z,98985.23
2019-05-30T17:51:46.113Z,98981.88
2019-05-30T17:54:14.435Z,98977.38
2019-05-30T17:56:43.126Z,98979.66
2019-05-30T17:59:11.792Z,98976.06
2019-05-30T18:01:40.129Z,98983.48
2019-05-30T18:04:08.765Z,98982.67
2019-05-30T18:06:37.067Z,98985.48
2019-05-30T18:09:07.145Z,98984.82
2019-05-30T18:11:35.508Z,98985.90
2019-05-30T18:14:04.251Z,98990.66
2019-05-30T18:16:32.643Z,98991.56
2019-05-30T18:19:01.321Z,98995.54
2019-05-30T18:21:29.629Z,98997.07
2019-05-30T18:23:58.375Z,98999.26
2019-05-30T18:26:27.555Z,99001.17
2019-05-30T18:28:56.201Z,99002.52
2019-05-30T18:31:25.814Z,98999.45
2019-05-30T18:33:54.772Z,98999.03
2019-05-30T18:36:24.311Z,99006.72
2019-05-30T18:38:53.583Z,99002.75
2019-05-30T18:41:22.663Z,98994.91
2019-05-30T18:43:51.143Z,99000.72
2019-05-30T18:46:19.763Z,99006.38
2019-05-30T18:48:48.450Z,99006.94
2019-05-30T18:51:16.745Z,99008.47
2019-05-30T18:53:45.083Z,99014.00
2019-05-30T18:56:13.443Z,99011.67
2019-05-30T18:58:41.765Z,99015.30
2019-05-30T19:01:10.144Z,99016.01
2019-05-30T19:03:38.669Z,99018.63
2019-05-30T19:06:07.430Z,99021.45
2019-05-30T19:08:36.222Z,99024.42
2019-05-30T19:11:05.539Z,99026.34
2019-05-30T19:13:33.827Z,99026.59
2019-05-30T19:16:02.158Z,99029.22
2019-05-30T19:18:31.514Z,99032.42
2019-05-30T19:21:00.481Z,99034.64
2019-05-30T19:23:29.949Z,99044.14
2019-05-30T19:25:58.578Z,99047.81
2019-05-30T19:28:28.445Z,99057.16
2019-05-30T19:30:57.383Z,99057.73
2019-05-30T19:33:26.699Z,99059.50
2019-05-30T19:35:55.120Z,99063.36
2019-05-30T19:38:23.454Z,99072.38
2019-05-30T19:40:52.041Z,99078.20
2019-05-30T19:43:20.730Z,99071.23
2019-05-30T19:45:49.069Z,99075.53
2019-05-30T19:48:17.508Z,99078.87
2019-05-30T19:50:45.894Z,99068.92
2019-05-30T19:53:14.202Z,99085.87
2019-05-30T19:55:42.537Z,99088.14
2019-05-30T19:58:10.846Z,99089.02
2019-05-30T20:00:57.571Z,99087.37
2019-05-30T20:03:09.343Z,99088.80
2019-05-30T20:05:38.887Z,99089.94
2019-05-30T20:08:07.625Z,99094.66
2019-05-30T20:10:37.263Z,99089.55
2019-05-30T20:13:06.063Z,99099.09
2019-05-30T20:15:35.454Z,99088.42
2019-05-30T20:18:04.573Z,99091.12
2019-05-30T20:20:48.250Z,99089.33
2019-05-30T20:23:03.147Z,99092.55
2019-05-30T20:25:32.597Z,99092.79
2019-05-30T20:28:01.284Z,99091.52
2019-05-30T20:30:29.955Z,99097.68
2019-05-30T20:32:58.365Z,99101.58
2019-05-30T20:35:26.738Z,99104.38
2019-05-30T20:37:55.156Z,99101.59
2019-05-30T20:40:24.157Z,99095.64
2019-05-30T20:42:52.556Z,99096.51
2019-05-30T20:45:20.915Z,99103.25
2019-05-30T20:47:49.298Z,99100.80
2019-05-30T20:50:18.458Z,99105.66
2019-05-30T20:52:47.647Z,99100.55
2019-05-30T20:55:16.599Z,99112.64
2019-05-30T20:57:45.290Z,99105.27
2019-05-30T21:00:15.204Z,99101.03
2019-05-30T21:02:43.876Z,99107.35
2019-05-30T21:05:13.194Z,99109.27
2019-05-30T21:07:44.244Z,99103.31
2019-05-30T21:10:15.280Z,99100.53
2019-05-30T21:12:47.797Z,99099.73
2019-05-30T21:15:15.527Z,99107.06
2019-05-30T21:17:46.282Z,99106.73
2019-05-30T21:20:15.570Z,99107.54
2019-05-30T21:22:44.691Z,99106.83
2019-05-30T21:25:14.069Z,99109.45
2019-05-30T21:27:43.042Z,99108.08
2019-05-30T21:30:12.672Z,99107.38
2019-05-30T21:32:42.056Z,99112.81
2019-05-30T21:35:11.772Z,99110.23
2019-05-30T21:37:41.730Z,99111.78
2019-05-30T21:40:12.112Z,99104.88
2019-05-30T21:42:58.201Z,99106.03
2019-05-30T21:45:10.887Z,99113.12
2019-05-30T21:47:40.756Z,99111.38
2019-05-30T21:50:11.883Z,99112.78
2019-05-30T21:52:39.540Z,99112.78
2019-05-30T21:55:08.171Z,99109.66
2019-05-30T21:57:36.492Z,99108.56
2019-05-30T22:00:15.489Z,99117.17
2019-05-30T22:02:50.795Z,99115.16
2019-05-30T22:05:19.190Z,99111.03
2019-05-30T22:07:47.517Z,99121.68
2019-05-30T22:10:16.179Z,99113.51
2019-05-30T22:12:45.608Z,99115.41
2019-05-30T22:15:13.922Z,99112.91
2019-05-30T22:17:43.770Z,99111.66
2019-05-30T22:20:12.625Z,99107.90
2019-05-30T22:22:41.890Z,99112.34
2019-05-30T22:25:10.596Z,99117.61
2019-05-30T22:27:39.259Z,99116.41
2019-05-30T22:30:07.943Z,99109.84
2019-05-30T22:32:36.236Z,99109.14
2019-05-30T22:35:06.400Z,99105.91
2019-05-30T22:37:35.145Z,99102.11
2019-05-30T22:40:05.478Z,99109.73
2019-05-30T22:42:33.778Z,99111.26
2019-05-30T22:45:02.131Z,99107.26
2019-05-30T22:47:30.403Z,99106.00
2019-05-30T22:49:58.699Z,99103.25
2019-05-30T22:52:27.028Z,99101.90
2019-05-30T22:54:55.398Z,99105.41
2019-05-30T22:57:23.716Z,99103.05
2019-05-30T22:59:53.041Z,99108.05
2019-05-30T23:02:21.406Z,99098.41
2019-05-30T23:04:50.088Z,99098.50
2019-05-30T23:07:18.507Z,99094.06
2019-05-30T23:09:47.533Z,99094.25
2019-05-30T23:12:16.213Z,99100.06
2019-05-30T23:14:45.796Z,99102.09
2019-05-30T23:17:14.899Z,99105.48
2019-05-30T23:19:43.199Z,99103.34
2019-05-30T23:22:11.493Z,99108.56
2019-05-30T23:24:39.828Z,99115.78
2019-05-30T23:27:08.445Z,99117.44
2019-05-30T23:29:37.032Z,99113.01
2019-05-30T23:32:05.331Z,99102.19
2019-05-30T23:34:33.731Z,99109.56
2019-05-30T23:37:02.037Z,99100.42
2019-05-30T23:39:30.729Z,99102.51
2019-05-30T23:41:59.421Z,99096.11
2019-05-30T23:44:27.946Z,99109.06
2019-05-30T23:46:57.784Z,99102.44
2019-05-30T23:49:26.608Z,99102.41
2019-05-30T23:51:56.191Z,99100.25
2019-05-30T23:54:24.905Z,99103.89
2019-05-30T23:56:54.582Z,99098.39
2019-05-30T23:59:23.106Z,99097.05
